Time;durP1;ratioP1;P1;durP2;ratioP2;P2;SDS_P1;SDS_P2;PMS_P1;PMS_P2;Temp;Humidity;BMP_temperature;BMP_pressure;BME280_temperature;BME280_humidity;BME280_pressure;Samples;Min_cycle;Max_cycle;Signal;HPM_P1;HPM_P2
2022/12/29 00:01:01;;;;;;;1.33;0.70;;;13.70;99.90;;;;;;5067059;28;20660;-32
2022/12/29 00:03:29;;;;;;;1.40;1.10;;;13.70;99.90;;;;;;5066203;28;20270;-32
2022/12/29 00:05:58;;;;;;;1.10;1.00;;;13.70;99.90;;;;;;5066207;28;20201;-32
2022/12/29 00:08:39;;;;;;;0.80;0.73;;;13.70;99.90;;;;;;5065791;28;20227;-32
2022/12/29 00:11:08;;;;;;;1.23;0.77;;;13.70;99.90;;;;;;5066413;28;20249;-32
2022/12/29 00:16:24;;;;;;;1.30;0.80;;;13.80;99.90;;;;;;5066438;28;20203;-32
2022/12/29 00:18:52;;;;;;;2.00;0.87;;;13.70;99.90;;;;;;5066209;28;20195;-32
2022/12/29 00:35:30;;;;;;;1.40;0.90;;;13.60;99.90;;;;;;5045735;28;20724;-33
2022/12/29 00:46:21;;;;;;;1.50;0.60;;;13.60;99.90;;;;;;5045864;28;20254;-29
2022/12/29 00:51:41;;;;;;;2.93;0.80;;;13.70;99.90;;;;;;5056180;28;20232;-30
2022/12/29 00:54:09;;;;;;;3.13;0.60;;;13.70;99.90;;;;;;5064089;28;20199;-29
2022/12/29 00:56:36;;;;;;;2.07;0.70;;;13.70;99.90;;;;;;5065605;28;20207;-29
2022/12/29 00:59:06;;;;;;;2.73;0.60;;;13.70;99.90;;;;;;5062813;28;20256;-29
2022/12/29 01:01:37;;;;;;;3.53;0.80;;;13.70;99.90;;;;;;5064352;28;20225;-30
2022/12/29 01:04:08;;;;;;;3.43;0.63;;;13.60;99.90;;;;;;5065376;28;20208;-33
2022/12/29 01:06:39;;;;;;;1.90;0.70;;;13.70;99.90;;;;;;5063998;28;20632;-33
2022/12/29 01:11:55;;;;;;;3.90;1.00;;;13.70;99.90;;;;;;5065258;28;20257;-33
2022/12/29 01:14:26;;;;;;;2.87;0.80;;;13.70;99.90;;;;;;5065070;28;20200;-34
2022/12/29 01:16:54;;;;;;;4.63;0.90;;;13.70;99.90;;;;;;5064986;28;20277;-34
2022/12/29 01:19:24;;;;;;;2.63;0.80;;;13.70;99.90;;;;;;5050285;28;20235;-34
2022/12/29 01:21:52;;;;;;;2.77;0.80;;;13.70;99.90;;;;;;5045106;28;20212;-32
2022/12/29 01:24:25;;;;;;;4.97;0.73;;;13.70;99.90;;;;;;5044850;28;20318;-32
2022/12/29 01:26:55;;;;;;;3.53;1.00;;;13.70;99.90;;;;;;5043224;28;20564;-32
2022/12/29 01:29:24;;;;;;;2.47;0.80;;;13.60;99.90;;;;;;5044815;28;20235;-32
2022/12/29 01:31:52;;;;;;;1.50;0.70;;;13.70;99.90;;;;;;5044791;28;20266;-32
2022/12/29 01:34:19;;;;;;;2.33;0.90;;;13.70;99.90;;;;;;5044949;28;20662;-32
2022/12/29 01:36:48;;;;;;;3.10;0.70;;;13.70;99.90;;;;;;5043818;28;20207;-34
2022/12/29 01:39:15;;;;;;;1.77;0.80;;;13.60;99.90;;;;;;5048368;28;20339;-34
2022/12/29 01:41:43;;;;;;;2.83;1.00;;;13.70;99.90;;;;;;5049018;28;20203;-34
2022/12/29 01:45:01;;;;;;;3.57;1.27;;;13.70;99.90;;;;;;5047964;28;20199;-34
2022/12/29 01:47:43;;;;;;;3.53;1.03;;;13.60;99.90;;;;;;5025699;28;20211;-32
2022/12/29 01:50:43;;;;;;;1.90;0.77;;;13.60;99.90;;;;;;5048880;28;20272;-32
2022/12/29 01:53:28;;;;;;;3.23;1.00;;;13.60;99.90;;;;;;5041064;28;20752;-32
2022/12/29 01:56:02;;;;;;;0.90;0.60;;;13.60;99.90;;;;;;5048893;28;20290;-32
2022/12/29 01:58:33;;;;;;;1.77;0.80;;;13.50;99.90;;;;;;5049892;28;20216;-32
2022/12/29 02:01:01;;;;;;;3.97;1.10;;;13.50;99.90;;;;;;5048995;28;20226;-32
2022/12/29 02:03:31;;;;;;;3.03;1.07;;;13.50;99.90;;;;;;5047307;28;20589;-32
2022/12/29 02:06:22;;;;;;;1.83;0.80;;;13.50;99.90;;;;;;5049237;28;20738;-32
2022/12/29 02:08:52;;;;;;;2.67;0.93;;;13.50;99.90;;;;;;5048253;28;20236;-32
2022/12/29 02:11:21;;;;;;;1.57;0.70;;;13.50;99.90;;;;;;5049757;28;20262;-32
2022/12/29 02:13:48;;;;;;;3.53;0.93;;;13.40;99.90;;;;;;5048116;28;20644;-32
2022/12/29 02:16:57;;;;;;;1.20;0.80;;;13.40;99.90;;;;;;5049492;28;20486;-33
2022/12/29 02:19:50;;;;;;;1.27;0.73;;;13.40;99.90;;;;;;5048664;28;20219;-33
2022/12/29 02:22:30;;;;;;;2.13;0.63;;;13.40;99.90;;;;;;5049250;28;20657;-33
2022/12/29 02:25:41;;;;;;;2.23;0.40;;;13.40;99.90;;;;;;5050918;28;20497;-33
2022/12/29 02:28:21;;;;;;;2.90;0.50;;;13.40;99.90;;;;;;5038147;28;20631;-33
2022/12/29 02:31:14;;;;;;;2.00;0.60;;;13.40;99.90;;;;;;5068233;28;20281;-33
2022/12/29 02:33:56;;;;;;;0.53;0.40;;;13.30;99.90;;;;;;5067921;28;20227;-32
2022/12/29 02:36:42;;;;;;;0.77;0.30;;;13.30;99.90;;;;;;5066642;28;20230;-32
2022/12/29 02:39:22;;;;;;;1.50;0.40;;;13.30;99.90;;;;;;5067961;28;20207;-32
2022/12/29 02:42:03;;;;;;;0.67;0.40;;;13.20;99.90;;;;;;5066691;28;20247;-32
2022/12/29 02:44:57;;;;;;;1.10;0.23;;;13.30;99.90;;;;;;5068532;28;20561;-32
2022/12/29 02:47:36;;;;;;;1.80;0.77;;;13.30;99.90;;;;;;5068000;28;20624;-32
2022/12/29 02:50:13;;;;;;;0.80;0.40;;;13.30;99.90;;;;;;5067622;28;20274;-32
2022/12/29 02:52:50;;;;;;;0.67;0.50;;;13.30;99.90;;;;;;5067535;28;20235;-32
2022/12/29 02:55:22;;;;;;;0.77;0.33;;;13.30;99.90;;;;;;5068100;28;20645;-32
2022/12/29 02:58:05;;;;;;;0.97;0.30;;;13.30;99.90;;;;;;5066782;28;20295;-32
2022/12/29 03:00:39;;;;;;;0.47;0.37;;;13.30;99.90;;;;;;5068303;28;20200;-32
2022/12/29 03:03:25;;;;;;;1.33;0.30;;;13.30;99.90;;;;;;5067572;28;20227;-32
2022/12/29 03:06:12;;;;;;;1.10;0.30;;;13.30;99.90;;;;;;5066920;28;20207;-33
2022/12/29 03:09:01;;;;;;;1.47;0.40;;;13.30;99.90;;;;;;5048937;28;20258;-32
2022/12/29 03:17:39;;;;;;;0.37;0.20;;;13.00;99.90;;;;;;5047338;28;20207;-32
2022/12/29 03:20:10;;;;;;;0.67;0.37;;;12.90;99.90;;;;;;5047293;28;20765;-32
2022/12/29 03:22:44;;;;;;;2.37;0.37;;;12.80;99.90;;;;;;5058955;28;20204;-32
2022/12/29 03:25:26;;;;;;;1.87;0.43;;;12.80;99.90;;;;;;5067480;28;20192;-32
2022/12/29 03:28:01;;;;;;;1.97;0.40;;;12.80;99.90;;;;;;5066294;28;20583;-33
2022/12/29 03:30:31;;;;;;;0.87;0.30;;;12.70;99.90;;;;;;5065806;28;20242;-32
2022/12/29 03:33:02;;;;;;;1.33;0.30;;;12.60;99.90;;;;;;5066858;28;20287;-32
2022/12/29 03:35:37;;;;;;;1.67;0.40;;;12.70;99.90;;;;;;5066584;28;20192;-33
2022/12/29 03:38:18;;;;;;;0.50;0.23;;;12.70;99.90;;;;;;5066679;28;20661;-32
2022/12/29 03:40:55;;;;;;;0.73;0.30;;;12.60;99.90;;;;;;5067132;28;20254;-32
2022/12/29 03:43:22;;;;;;;1.17;0.33;;;12.60;99.90;;;;;;5065764;28;20197;-32
2022/12/29 03:45:50;;;;;;;2.10;0.40;;;12.60;99.90;;;;;;5067267;28;20300;-32
2022/12/29 03:48:19;;;;;;;0.93;0.20;;;12.60;99.90;;;;;;5065691;28;20211;-32
2022/12/29 03:50:47;;;;;;;1.10;0.20;;;12.50;99.90;;;;;;5066762;28;20274;-32
2022/12/29 03:53:14;;;;;;;1.90;0.50;;;12.50;99.90;;;;;;5065110;28;20215;-32
2022/12/29 03:55:43;;;;;;;2.30;0.60;;;12.40;99.90;;;;;;5066583;28;20226;-32
2022/12/29 03:58:10;;;;;;;1.27;0.50;;;12.50;99.90;;;;;;5065913;28;20205;-33
2022/12/29 04:00:38;;;;;;;2.33;0.50;;;12.40;99.90;;;;;;5060064;28;20208;-32
2022/12/29 04:03:07;;;;;;;2.20;0.60;;;12.50;99.90;;;;;;5044718;28;20216;-32
2022/12/29 04:05:37;;;;;;;3.70;0.70;;;12.50;99.90;;;;;;5044458;28;20214;-32
2022/12/29 04:08:04;;;;;;;3.13;0.90;;;12.50;99.90;;;;;;5045364;28;20200;-32
2022/12/29 04:10:35;;;;;;;1.73;0.60;;;12.50;99.90;;;;;;5045075;28;20350;-33
2022/12/29 04:13:04;;;;;;;4.13;0.80;;;12.50;99.90;;;;;;5045280;28;20242;-33
2022/12/29 04:15:32;;;;;;;2.53;0.60;;;12.50;99.90;;;;;;5045653;28;20196;-33
2022/12/29 04:17:59;;;;;;;3.23;1.03;;;12.50;99.90;;;;;;5045550;28;20277;-33
2022/12/29 04:23:11;;;;;;;3.07;0.90;;;12.40;99.90;;;;;;5061485;28;20640;-33
2022/12/29 04:25:39;;;;;;;2.43;0.87;;;12.30;99.90;;;;;;5064005;28;20306;-32
2022/12/29 04:28:08;;;;;;;3.50;1.00;;;12.30;99.90;;;;;;5064713;28;20211;-33
2022/12/29 04:30:35;;;;;;;4.37;0.83;;;12.30;99.90;;;;;;5065341;28;20224;-32
2022/12/29 04:33:03;;;;;;;3.40;0.70;;;12.30;99.90;;;;;;5064983;28;20234;-32
2022/12/29 04:35:32;;;;;;;3.23;0.80;;;12.20;99.90;;;;;;5063807;28;20208;-33
2022/12/29 04:37:59;;;;;;;1.47;0.63;;;12.20;99.90;;;;;;5065495;28;20542;-34
2022/12/29 04:40:27;;;;;;;3.80;0.63;;;12.20;99.90;;;;;;5065420;28;20202;-32
2022/12/29 04:42:54;;;;;;;2.00;0.67;;;12.20;99.90;;;;;;5064321;28;20218;-32
2022/12/29 04:45:24;;;;;;;2.80;0.70;;;12.20;99.90;;;;;;5065593;28;20361;-33
2022/12/29 04:47:51;;;;;;;5.03;1.10;;;12.20;99.90;;;;;;5065207;28;20639;-33
2022/12/29 04:50:20;;;;;;;3.03;0.63;;;12.20;99.90;;;;;;5065195;28;20250;-33
2022/12/29 04:52:48;;;;;;;2.90;0.83;;;12.20;99.90;;;;;;5063418;28;20211;-33
2022/12/29 04:55:15;;;;;;;4.80;0.90;;;12.20;99.90;;;;;;5065082;28;20749;-33
2022/12/29 04:57:46;;;;;;;4.13;0.63;;;12.20;99.90;;;;;;5064617;28;20803;-32
2022/12/29 05:00:14;;;;;;;3.70;1.57;;;12.30;99.90;;;;;;5063506;28;20305;-33
2022/12/29 05:02:41;;;;;;;2.53;0.70;;;12.30;99.90;;;;;;5063126;28;20330;-32
2022/12/29 05:05:09;;;;;;;4.77;0.90;;;12.30;99.90;;;;;;5064988;28;20199;-33
2022/12/29 05:07:39;;;;;;;4.43;0.70;;;12.30;99.90;;;;;;5064643;28;20203;-33
2022/12/29 05:10:07;;;;;;;4.00;0.90;;;12.30;99.90;;;;;;5064723;28;20634;-34
2022/12/29 05:12:36;;;;;;;4.67;0.90;;;12.30;99.90;;;;;;5063241;28;20207;-32
2022/12/29 05:15:05;;;;;;;5.07;0.90;;;12.30;99.90;;;;;;5065020;28;20203;-33
2022/12/29 05:17:36;;;;;;;5.67;1.03;;;12.30;99.90;;;;;;5063108;28;20195;-33
2022/12/29 05:20:05;;;;;;;5.77;1.17;;;12.30;99.90;;;;;;5064838;28;20749;-33
2022/12/29 05:22:34;;;;;;;4.77;0.80;;;12.40;99.90;;;;;;5053368;28;20232;-33
2022/12/29 05:25:04;;;;;;;7.83;0.90;;;12.40;99.90;;;;;;5044645;28;20205;-33
2022/12/29 05:27:31;;;;;;;5.87;0.90;;;12.40;99.90;;;;;;5043689;28;20232;-33
2022/12/29 05:29:59;;;;;;;5.03;1.37;;;12.40;99.90;;;;;;5044649;28;20227;-33
2022/12/29 05:32:27;;;;;;;4.33;0.77;;;12.40;99.90;;;;;;5044443;28;20224;-33
2022/12/29 05:34:56;;;;;;;2.87;0.70;;;12.30;99.90;;;;;;5045012;28;20201;-33
2022/12/29 05:37:24;;;;;;;7.00;1.20;;;12.30;99.90;;;;;;5044330;28;20231;-33
2022/12/29 05:39:53;;;;;;;3.43;0.90;;;12.30;99.90;;;;;;5044631;28;20215;-33
2022/12/29 05:42:20;;;;;;;4.50;1.00;;;12.30;99.90;;;;;;5044144;28;20323;-33
2022/12/29 05:44:49;;;;;;;3.40;1.10;;;12.30;99.90;;;;;;5045000;28;20289;-33
2022/12/29 05:47:17;;;;;;;5.63;1.10;;;12.30;99.90;;;;;;5044276;28;20765;-33
2022/12/29 05:49:46;;;;;;;3.23;1.17;;;12.40;99.90;;;;;;5042775;28;20686;-33
2022/12/29 05:52:16;;;;;;;4.07;1.30;;;12.40;99.90;;;;;;5044463;28;20196;-33
2022/12/29 05:54:44;;;;;;;6.70;1.37;;;12.40;99.90;;;;;;5044523;28;20224;-33
2022/12/29 05:57:16;;;;;;;6.83;1.13;;;12.40;99.90;;;;;;5043338;28;20208;-33
2022/12/29 05:59:43;;;;;;;5.47;1.00;;;12.40;99.90;;;;;;5043395;28;20212;-33
2022/12/29 06:02:13;;;;;;;3.93;1.40;;;12.40;99.90;;;;;;5044246;28;20200;-33
2022/12/29 06:04:42;;;;;;;4.47;1.00;;;12.40;99.90;;;;;;5044248;28;20713;-33
2022/12/29 06:07:09;;;;;;;6.07;1.37;;;12.30;99.90;;;;;;5044598;28;20714;-33
2022/12/29 06:09:39;;;;;;;7.13;1.53;;;12.30;99.90;;;;;;5044514;28;20212;-33
2022/12/29 06:12:06;;;;;;;8.90;1.70;;;12.30;99.90;;;;;;5043808;28;20197;-33
2022/12/29 06:14:33;;;;;;;4.47;1.00;;;12.30;99.90;;;;;;5045582;28;20714;-33
2022/12/29 06:17:01;;;;;;;5.40;1.37;;;12.30;99.90;;;;;;5045555;28;20242;-33
2022/12/29 06:19:32;;;;;;;7.20;1.37;;;12.30;99.90;;;;;;5044467;28;20728;-33
2022/12/29 06:22:04;;;;;;;10.20;1.90;;;12.30;99.90;;;;;;5051245;28;20752;-33
2022/12/29 06:24:32;;;;;;;4.50;1.10;;;12.30;99.90;;;;;;5052593;28;20303;-33
2022/12/29 06:27:01;;;;;;;9.30;2.33;;;12.30;99.90;;;;;;5047359;28;20542;-33
2022/12/29 06:29:28;;;;;;;5.87;1.77;;;12.30;99.90;;;;;;5050673;28;20254;-33
2022/12/29 06:31:58;;;;;;;7.13;1.47;;;12.30;99.90;;;;;;5050862;28;20235;-33
2022/12/29 06:34:27;;;;;;;4.83;1.17;;;12.30;99.90;;;;;;5051096;28;20224;-33
2022/12/29 06:36:54;;;;;;;6.63;1.50;;;12.30;99.90;;;;;;5048250;28;20188;-33
2022/12/29 06:39:22;;;;;;;7.17;1.80;;;12.30;99.90;;;;;;5053160;28;20307;-33
2022/12/29 06:41:55;;;;;;;8.77;1.53;;;12.30;99.90;;;;;;5068010;28;20199;-33
2022/12/29 06:44:22;;;;;;;5.57;1.50;;;12.20;99.90;;;;;;5062966;28;20302;-33
2022/12/29 06:46:52;;;;;;;7.57;1.30;;;12.20;99.90;;;;;;5055503;28;20266;-34
2022/12/29 06:49:20;;;;;;;5.93;1.63;;;12.20;99.90;;;;;;5050392;28;20274;-33
2022/12/29 06:51:47;;;;;;;5.67;1.27;;;12.20;99.90;;;;;;5056610;28;20330;-33
2022/12/29 06:54:16;;;;;;;4.30;1.40;;;12.20;99.90;;;;;;5052158;28;20200;-32
2022/12/29 06:56:45;;;;;;;8.67;1.40;;;12.10;99.90;;;;;;5064382;28;20682;-33
2022/12/29 06:59:15;;;;;;;5.57;1.60;;;12.20;99.90;;;;;;5048022;28;20200;-33
2022/12/29 07:01:43;;;;;;;6.53;1.33;;;12.10;99.90;;;;;;5057766;28;20226;-33
2022/12/29 07:04:12;;;;;;;7.67;1.33;;;12.10;99.90;;;;;;5062417;28;20229;-35
2022/12/29 07:06:44;;;;;;;4.43;1.10;;;12.20;99.90;;;;;;5048621;28;20216;-35
2022/12/29 07:09:14;;;;;;;7.23;1.57;;;12.20;99.90;;;;;;5047345;28;20549;-33
2022/12/29 07:11:46;;;;;;;4.83;1.53;;;12.20;99.90;;;;;;5046748;28;20254;-33
2022/12/29 07:14:16;;;;;;;6.97;1.20;;;12.20;99.90;;;;;;5053788;28;20211;-32
2022/12/29 07:16:48;;;;;;;7.43;1.80;;;12.20;99.90;;;;;;5062760;28;20725;-33
2022/12/29 07:19:17;;;;;;;5.33;1.30;;;12.20;99.90;;;;;;5054027;28;20200;-33
2022/12/29 07:21:46;;;;;;;4.67;1.30;;;12.10;99.90;;;;;;5063076;28;20655;-33
2022/12/29 07:24:13;;;;;;;6.93;1.50;;;12.20;99.90;;;;;;5048981;28;20219;-33
2022/12/29 07:26:45;;;;;;;8.90;1.53;;;12.10;99.90;;;;;;5064653;28;20378;-33
2022/12/29 07:29:12;;;;;;;6.23;1.50;;;12.20;99.90;;;;;;5053771;28;20200;-33
2022/12/29 07:31:39;;;;;;;9.00;1.50;;;12.20;99.90;;;;;;5053518;28;20777;-33
2022/12/29 07:34:13;;;;;;;7.20;1.80;;;12.20;99.90;;;;;;5049315;28;20208;-33
2022/12/29 07:36:40;;;;;;;6.77;1.37;;;12.20;99.90;;;;;;5059040;28;20203;-35
2022/12/29 07:39:09;;;;;;;8.13;1.30;;;12.20;99.90;;;;;;5063970;28;20249;-35
2022/12/29 07:41:38;;;;;;;7.37;1.83;;;12.30;99.90;;;;;;5053997;28;20312;-35
2022/12/29 07:44:08;;;;;;;6.83;1.63;;;12.20;99.90;;;;;;5056020;28;20204;-35
2022/12/29 07:46:36;;;;;;;7.90;1.63;;;12.20;99.90;;;;;;5064001;28;20604;-35
2022/12/29 07:49:26;;;;;;;5.20;1.30;;;12.20;99.90;;;;;;5062938;28;20250;-34
2022/12/29 07:51:53;;;;;;;6.63;1.57;;;12.10;99.90;;;;;;5061720;28;20230;-35
2022/12/29 07:54:23;;;;;;;9.40;1.97;;;12.20;99.90;;;;;;5066372;28;20262;-33
2022/12/29 07:56:51;;;;;;;7.70;2.00;;;12.20;99.90;;;;;;5069734;28;20211;-33
2022/12/29 07:59:21;;;;;;;6.10;1.80;;;12.20;99.90;;;;;;5055359;28;20249;-33
2022/12/29 08:01:50;;;;;;;8.10;1.30;;;12.20;99.90;;;;;;5064442;28;20223;-35
2022/12/29 08:04:17;;;;;;;8.60;1.43;;;12.20;99.90;;;;;;5065837;28;20212;-35
2022/12/29 08:06:45;;;;;;;9.07;1.80;;;12.20;99.90;;;;;;5066263;28;20600;-35
2022/12/29 08:09:18;;;;;;;12.10;1.90;;;12.20;99.90;;;;;;5058481;28;20199;-35
2022/12/29 08:11:50;;;;;;;10.67;1.60;;;12.20;99.90;;;;;;5050506;28;20289;-35
2022/12/29 08:14:21;;;;;;;10.30;1.93;;;12.20;99.90;;;;;;5055075;28;20220;-35
2022/12/29 08:16:51;;;;;;;6.33;1.40;;;12.20;99.90;;;;;;5086047;28;20230;-35
2022/12/29 08:19:20;;;;;;;7.70;1.57;;;12.20;99.90;;;;;;5084424;28;20222;-33
2022/12/29 08:21:48;;;;;;;8.33;1.67;;;12.20;99.90;;;;;;5066799;28;20215;-33
2022/12/29 08:24:20;;;;;;;8.53;1.80;;;12.20;99.90;;;;;;5052407;28;20211;-33
2022/12/29 08:26:52;;;;;;;8.90;1.90;;;12.10;99.90;;;;;;5064037;28;20257;-33
2022/12/29 08:29:21;;;;;;;8.43;1.80;;;12.10;99.90;;;;;;5057064;28;20258;-33
2022/12/29 08:31:51;;;;;;;5.97;1.43;;;12.10;99.90;;;;;;5064681;28;20215;-33
2022/12/29 08:34:18;;;;;;;10.63;2.40;;;12.10;99.90;;;;;;5060635;28;20667;-34
2022/12/29 08:36:45;;;;;;;7.80;1.63;;;12.00;99.90;;;;;;5061826;28;20196;-33
2022/12/29 08:39:17;;;;;;;6.97;1.70;;;12.10;99.90;;;;;;5065239;28;20231;-33
2022/12/29 08:41:47;;;;;;;10.13;2.17;;;12.00;99.90;;;;;;5055124;28;21728;-33
2022/12/29 08:44:17;;;;;;;9.10;2.00;;;12.10;99.90;;;;;;5053347;28;20283;-33
2022/12/29 08:46:44;;;;;;;10.73;1.97;;;12.10;99.90;;;;;;5069278;28;20207;-33
2022/12/29 08:49:11;;;;;;;9.73;2.13;;;12.10;99.90;;;;;;5061440;28;20215;-33
2022/12/29 08:51:39;;;;;;;9.73;1.80;;;12.10;99.90;;;;;;5057347;28;20240;-33
2022/12/29 08:54:13;;;;;;;8.70;2.00;;;12.10;99.90;;;;;;5050315;28;20195;-33
2022/12/29 08:56:40;;;;;;;10.40;1.63;;;12.10;99.90;;;;;;5053596;28;20689;-33
2022/12/29 08:59:07;;;;;;;6.43;1.60;;;12.20;99.90;;;;;;5053887;28;20598;-33
2022/12/29 09:01:36;;;;;;;7.53;1.87;;;12.10;99.90;;;;;;5049033;28;20243;-33
2022/12/29 09:04:06;;;;;;;6.67;1.60;;;12.10;99.90;;;;;;5034942;28;20238;-33
2022/12/29 09:06:43;;;;;;;11.00;1.90;;;12.10;99.90;;;;;;5055725;28;20223;-33
2022/12/29 09:09:11;;;;;;;11.67;1.90;;;12.20;99.90;;;;;;5049628;28;20223;-34
2022/12/29 09:11:39;;;;;;;8.17;1.73;;;12.20;99.90;;;;;;5051279;28;20594;-33
2022/12/29 09:14:06;;;;;;;12.30;2.23;;;12.20;99.90;;;;;;5056288;28;20626;-33
2022/12/29 09:16:36;;;;;;;6.30;2.03;;;12.20;99.90;;;;;;5052400;28;20223;-33
2022/12/29 09:19:04;;;;;;;7.20;1.60;;;12.10;99.90;;;;;;5051943;28;20288;-33
2022/12/29 09:21:31;;;;;;;9.83;1.93;;;12.10;99.90;;;;;;5058953;28;20207;-33
2022/12/29 09:23:59;;;;;;;6.50;1.73;;;12.20;99.90;;;;;;5058003;28;20215;-33
2022/12/29 09:26:26;;;;;;;6.57;2.10;;;12.20;99.90;;;;;;5045101;28;20257;-33
2022/12/29 09:28:53;;;;;;;9.37;1.97;;;12.20;99.90;;;;;;5059380;28;20286;-33
2022/12/29 09:31:22;;;;;;;9.20;2.37;;;12.20;99.90;;;;;;5069006;28;20694;-33
2022/12/29 09:33:53;;;;;;;8.70;2.00;;;12.20;99.90;;;;;;5049620;28;20196;-33
2022/12/29 09:36:23;;;;;;;8.40;1.90;;;12.30;99.90;;;;;;5059993;28;20204;-33
2022/12/29 09:38:50;;;;;;;8.93;2.30;;;12.30;99.90;;;;;;5056713;28;20634;-33
2022/12/29 09:42:04;;;;;;;9.90;2.37;;;12.30;99.90;;;;;;5077129;28;20598;-33
2022/12/29 09:45:05;;;;;;;10.30;1.87;;;12.30;99.90;;;;;;5047309;28;20235;-33
2022/12/29 09:47:32;;;;;;;10.03;1.50;;;12.30;99.90;;;;;;5048394;28;21580;-33
2022/12/29 09:50:36;;;;;;;10.60;1.93;;;12.30;99.90;;;;;;5056912;28;20242;-33
2022/12/29 09:53:14;;;;;;;10.37;2.00;;;12.40;99.90;;;;;;5052847;28;20712;-33
2022/12/29 09:55:48;;;;;;;9.93;2.50;;;12.40;99.90;;;;;;5061121;28;20579;-33
2022/12/29 09:58:30;;;;;;;13.47;2.37;;;12.30;99.90;;;;;;5056471;28;20207;-34
2022/12/29 10:01:06;;;;;;;9.33;1.40;;;12.30;99.90;;;;;;5065241;28;20204;-33
2022/12/29 10:03:51;;;;;;;6.43;1.67;;;12.40;99.90;;;;;;5060005;28;20289;-33
2022/12/29 10:06:49;;;;;;;10.20;1.90;;;12.40;99.90;;;;;;5064505;28;20517;-33
2022/12/29 10:09:38;;;;;;;9.80;2.00;;;12.40;99.90;;;;;;5055144;28;20593;-33
2022/12/29 10:12:21;;;;;;;14.03;2.27;;;12.40;99.90;;;;;;5065082;28;20314;-33
2022/12/29 10:15:16;;;;;;;10.77;1.80;;;12.40;99.90;;;;;;5053647;28;20208;-33
2022/12/29 10:17:52;;;;;;;9.37;2.87;;;12.40;99.90;;;;;;5049416;28;20694;-33
2022/12/29 10:20:35;;;;;;;9.80;2.13;;;12.40;99.90;;;;;;5058417;28;20203;-33
2022/12/29 10:23:44;;;;;;;10.80;1.90;;;12.50;99.90;;;;;;5049919;28;20204;-34
2022/12/29 10:26:18;;;;;;;14.80;2.27;;;12.50;99.90;;;;;;5046712;28;20285;-34
2022/12/29 10:28:47;;;;;;;9.37;2.07;;;12.40;99.90;;;;;;5055077;28;20204;-33
2022/12/29 10:31:32;;;;;;;9.60;1.97;;;12.40;99.90;;;;;;5059344;28;20242;-33
2022/12/29 10:34:07;;;;;;;10.63;1.87;;;12.40;99.90;;;;;;5064382;28;20323;-33
2022/12/29 10:36:48;;;;;;;9.20;2.60;;;12.50;99.90;;;;;;5053618;28;20252;-33
2022/12/29 10:39:32;;;;;;;14.97;2.10;;;12.50;99.90;;;;;;5048743;28;20659;-33
2022/12/29 10:42:18;;;;;;;11.57;2.00;;;12.50;99.90;;;;;;5049046;28;20224;-33
2022/12/29 10:44:48;;;;;;;9.03;1.70;;;12.50;99.90;;;;;;5054431;28;20207;-33
2022/12/29 10:47:20;;;;;;;8.97;1.63;;;12.50;99.90;;;;;;5051444;28;20201;-32
2022/12/29 10:49:48;;;;;;;9.80;2.20;;;12.50;99.90;;;;;;5053374;28;20227;-33
2022/12/29 10:52:23;;;;;;;14.50;2.43;;;12.50;99.90;;;;;;5056400;28;20638;-33
2022/12/29 10:55:03;;;;;;;11.73;2.10;;;12.50;99.90;;;;;;5061730;28;20289;-33
2022/12/29 10:57:37;;;;;;;10.10;2.27;;;12.50;99.90;;;;;;5059438;28;20200;-33
2022/12/29 11:00:17;;;;;;;8.30;1.77;;;12.60;99.90;;;;;;5054471;28;20195;-32
2022/12/29 11:03:06;;;;;;;10.10;2.10;;;12.60;99.90;;;;;;5061270;28;20215;-33
2022/12/29 11:05:43;;;;;;;10.43;2.07;;;12.60;99.90;;;;;;5055396;28;20203;-32
2022/12/29 11:08:16;;;;;;;10.40;1.80;;;12.60;99.90;;;;;;5046624;28;20203;-33
2022/12/29 11:10:45;;;;;;;10.40;2.07;;;12.60;99.90;;;;;;5064412;28;20724;-33
2022/12/29 11:13:24;;;;;;;8.70;1.90;;;12.60;99.90;;;;;;5058903;28;20281;-33
2022/12/29 11:15:51;;;;;;;9.20;2.20;;;12.60;99.90;;;;;;5046029;28;20227;-33
2022/12/29 11:18:21;;;;;;;11.03;2.23;;;12.70;99.90;;;;;;5065140;28;20751;-32
2022/12/29 11:20:52;;;;;;;10.07;1.80;;;12.70;99.90;;;;;;5065812;28;20739;-33
2022/12/29 11:23:22;;;;;;;10.90;2.37;;;12.70;99.90;;;;;;5060914;28;20208;-32
2022/12/29 11:26:20;;;;;;;8.87;2.10;;;12.70;99.90;;;;;;5065466;28;20214;-33
2022/12/29 11:29:16;;;;;;;9.57;2.20;;;12.80;99.90;;;;;;5056221;28;20352;-32
2022/12/29 11:31:49;;;;;;;11.63;2.00;;;12.80;99.90;;;;;;5067428;28;20683;-32
2022/12/29 11:34:23;;;;;;;6.43;1.47;;;12.80;99.90;;;;;;5074954;28;20192;-32
2022/12/29 11:36:58;;;;;;;8.63;1.67;;;12.80;99.90;;;;;;5060845;28;20202;-32
2022/12/29 11:39:30;;;;;;;9.17;2.00;;;12.80;99.90;;;;;;5058967;28;20196;-32
2022/12/29 11:41:58;;;;;;;11.57;2.07;;;12.80;99.90;;;;;;5059942;28;20233;-32
2022/12/29 11:44:27;;;;;;;8.77;1.90;;;12.90;99.90;;;;;;5052789;28;20204;-32
2022/12/29 11:46:54;;;;;;;11.20;2.20;;;12.90;99.90;;;;;;5054358;28;20227;-35
2022/12/29 11:49:26;;;;;;;8.03;2.00;;;12.90;99.90;;;;;;5052582;28;20196;-32
2022/12/29 11:51:56;;;;;;;9.37;1.60;;;12.90;99.90;;;;;;5049775;28;20215;-32
2022/12/29 11:54:26;;;;;;;11.77;1.80;;;12.90;99.90;;;;;;5062919;28;20204;-32
2022/12/29 11:56:57;;;;;;;8.33;2.00;;;12.90;99.90;;;;;;5069180;28;20291;-32
2022/12/29 11:59:29;;;;;;;8.03;1.70;;;12.90;99.90;;;;;;5062726;28;20223;-32
2022/12/29 12:02:02;;;;;;;7.57;1.93;;;12.90;99.90;;;;;;5066328;28;20196;-33
2022/12/29 12:04:36;;;;;;;7.80;1.77;;;12.90;99.90;;;;;;5072180;28;20222;-33
2022/12/29 12:07:20;;;;;;;10.67;2.00;;;12.90;99.90;;;;;;5086941;28;20570;-32
2022/12/29 12:09:54;;;;;;;10.00;2.00;;;12.90;99.90;;;;;;5057730;28;20199;-32
2022/12/29 12:12:35;;;;;;;8.67;1.93;;;12.80;99.90;;;;;;5086217;28;20633;-32
2022/12/29 12:15:03;;;;;;;8.43;1.93;;;12.80;99.90;;;;;;5067801;28;20326;-32
2022/12/29 12:17:40;;;;;;;10.90;2.37;;;12.80;99.90;;;;;;5064654;28;20294;-32
2022/12/29 12:20:21;;;;;;;9.53;1.93;;;12.80;99.90;;;;;;5072088;28;20206;-32
2022/12/29 12:23:10;;;;;;;8.40;1.90;;;12.80;99.90;;;;;;5081971;28;20210;-33
2022/12/29 12:25:47;;;;;;;8.20;1.80;;;12.80;99.90;;;;;;5050404;28;20227;-32
2022/12/29 12:28:33;;;;;;;8.00;1.63;;;12.80;99.90;;;;;;5045273;28;20273;-32
2022/12/29 12:31:12;;;;;;;9.50;2.03;;;12.80;99.90;;;;;;5044833;28;20714;-32
2022/12/29 12:33:46;;;;;;;8.60;1.57;;;12.80;99.90;;;;;;5045160;28;20235;-32
2022/12/29 12:36:30;;;;;;;9.77;3.17;;;12.80;99.90;;;;;;5044670;28;20489;-32
2022/12/29 12:39:03;;;;;;;8.60;2.40;;;12.80;99.90;;;;;;5049638;28;20221;-32
2022/12/29 12:42:01;;;;;;;8.93;2.30;;;12.80;99.90;;;;;;5073535;28;20741;-32
2022/12/29 12:44:57;;;;;;;8.40;1.97;;;12.80;99.90;;;;;;5065921;28;20233;-33
2022/12/29 12:47:42;;;;;;;9.10;2.00;;;12.80;99.90;;;;;;5085684;28;20537;-33
2022/12/29 12:50:31;;;;;;;8.27;2.20;;;12.80;99.90;;;;;;5053186;28;20236;-32
2022/12/29 12:53:28;;;;;;;8.33;1.80;;;12.80;99.90;;;;;;5048563;28;20225;-32
2022/12/29 12:56:08;;;;;;;9.70;1.87;;;12.70;99.90;;;;;;5071734;28;20207;-32
2022/12/29 12:58:59;;;;;;;11.53;2.37;;;12.70;99.90;;;;;;5081945;28;20252;-32
2022/12/29 13:01:59;;;;;;;10.40;2.07;;;12.70;99.90;;;;;;5054249;28;20196;-33
2022/12/29 13:04:36;;;;;;;4.97;1.50;;;12.70;99.90;;;;;;5047054;28;20234;-32
2022/12/29 13:07:10;;;;;;;13.53;1.97;;;12.70;99.90;;;;;;5061602;28;20230;-33
2022/12/29 13:09:57;;;;;;;10.00;1.80;;;12.70;99.90;;;;;;5049454;28;20201;-32
2022/12/29 13:12:33;;;;;;;8.50;1.83;;;12.70;99.90;;;;;;5044459;28;20717;-32
2022/12/29 13:15:20;;;;;;;11.13;1.97;;;12.70;99.90;;;;;;5057779;28;20214;-33
2022/12/29 13:18:23;;;;;;;8.30;1.70;;;12.70;99.90;;;;;;5044748;28;20203;-32
2022/12/29 13:21:22;;;;;;;8.27;2.07;;;12.70;99.90;;;;;;5058287;28;20195;-33
2022/12/29 13:24:03;;;;;;;5.97;1.30;;;12.80;99.90;;;;;;5043686;28;20216;-32
2022/12/29 13:26:33;;;;;;;9.97;1.80;;;12.80;99.90;;;;;;5052262;28;20204;-33
2022/12/29 13:29:16;;;;;;;8.93;2.03;;;12.70;99.90;;;;;;5057981;28;20659;-32
2022/12/29 13:32:09;;;;;;;6.93;1.80;;;12.70;99.90;;;;;;5062281;28;20215;-33
2022/12/29 13:34:40;;;;;;;7.90;1.57;;;12.80;99.90;;;;;;5051028;28;20697;-32
2022/12/29 13:37:16;;;;;;;9.50;1.97;;;12.70;99.90;;;;;;5064788;28;20203;-32
2022/12/29 13:39:51;;;;;;;6.57;1.87;;;12.70;99.90;;;;;;5059226;28;20317;-32
2022/12/29 13:42:20;;;;;;;6.40;1.80;;;12.70;99.90;;;;;;5059415;28;20229;-32
2022/12/29 13:44:58;;;;;;;7.87;2.03;;;12.80;99.90;;;;;;5045397;28;20622;-32
2022/12/29 13:47:41;;;;;;;5.60;1.50;;;12.80;99.90;;;;;;5044963;28;20206;-32
2022/12/29 13:50:20;;;;;;;8.40;1.80;;;12.70;99.90;;;;;;5054981;28;20563;-33
2022/12/29 13:53:06;;;;;;;6.13;1.40;;;12.70;99.90;;;;;;5064100;28;20553;-32
2022/12/29 13:56:00;;;;;;;10.10;2.40;;;12.70;99.90;;;;;;5054229;28;20744;-32
2022/12/29 13:58:43;;;;;;;11.03;2.70;;;12.70;99.90;;;;;;5057733;28;20316;-32
2022/12/29 14:01:19;;;;;;;5.60;1.50;;;12.70;99.90;;;;;;5058408;28;20240;-32